Latest Weather Observations for Fitzroy Crossing

IDW60801

Issued at 11:35 am WST Friday 31 October 2014 (issued every 30 minutes, with the page automatically refreshed every 10 minutes)

About weather observations | Map of weather stations | Latest weather observations for WA | Other Formats
Station Details ID: 003093 Name: FITZROY CROSSING AERO Lat: -18.18 Lon: 125.56 Height: 114.5 m
Data from the previous 72 hours. | See also: Recent months at Fitzroy Crossing
Date/Time
WST
Temp
°C
App
Temp
°C
Dew
Point
Rel
Hum
%
Delta-T
°C
Wind Press
QNH
hPa
Press
MSL
hPa
Rain
since 9 am
mm
Dir
 
Spd
km/h
Gust
km/h
Spd
kts
Gust
kts
31/11:30am 39.6 38.6 14.6 23 15.8 W 13 22 7 12 1006.4 1005.5 0.0
31/11:00am 38.5 38.2 14.3 23 15.2 N 9 19 5 10 1007.1 1006.2 0.0
31/10:30am 37.4 38.0 15.8 27 13.8 W 7 17 4 9 1007.5 1006.6 0.0
31/10:00am 37.5 37.9 16.4 28 13.6 WSW 9 19 5 10 1007.9 1007.0 0.0
31/09:30am 35.9 35.3 15.6 30 12.8 WNW 13 22 7 12 1008.3 1007.4 0.0
31/09:00am 35.1 34.4 17.3 34 11.5 WNW 17 26 9 14 1008.6 1007.7 0.0
31/08:30am 34.2 33.7 17.0 36 11.0 WNW 15 22 8 12 1008.8 1007.9 0.0
31/08:00am 33.5 32.5 17.6 38 10.3 W 19 30 10 16 1008.8 1007.9 0.0
31/07:30am 33.0 32.3 18.7 42 9.4 WNW 20 26 11 14 1008.8 1007.9 0.0
31/07:00am 31.9 30.7 19.2 47 8.4 WNW 24 32 13 17 1008.6 1007.7 0.0
31/06:30am 30.7 29.5 20.0 52 7.1 NW 26 33 14 18 1008.1 1007.2 0.0
31/06:00am 29.8 29.4 20.1 56 6.4 NW 22 30 12 16 1007.8 1006.9 0.0
31/05:30am 29.2 29.6 19.8 57 6.2 NW 17 20 9 11 1007.5 1006.6 0.0
31/05:00am 29.3 29.4 19.9 57 6.2 NW 19 26 10 14 1007.3 1006.4 0.0
31/04:30am 29.7 29.6 20.0 56 6.4 WNW 20 26 11 14 1007.0 1006.1 0.0
31/04:00am 30.0 29.8 19.7 54 6.8 WNW 20 24 11 13 1006.8 1005.9 0.0
31/03:30am 30.5 29.8 19.5 51 7.2 NW 22 28 12 15 1006.8 1005.9 0.0
31/03:00am 30.9 30.1 19.3 50 7.6 NW 22 28 12 15 1006.5 1005.6 0.0
31/02:30am 31.6 29.4 18.6 46 8.5 WNW 28 37 15 20 1006.0 1005.1 0.0
31/02:00am 31.9 30.1 17.8 43 9.1 NW 24 32 13 17 1006.1 1005.2 0.0
31/01:30am 32.1 31.1 17.9 42 9.2 NNW 20 28 11 15 1005.8 1004.9 0.0
31/01:00am 32.1 31.4 18.7 45 8.8 NNW 20 24 11 13 1005.8 1004.9 0.0
31/12:30am 32.0 31.5 18.6 45 8.7 NW 19 24 10 13 1005.8 1004.9 0.0
31/12:00am 32.0 31.3 18.2 43 9.0 NW 19 26 10 14 1005.9 1005.0 0.0
 
Date/Time
WST
Temp
°C
App
Temp
°C
Dew
Point
Rel
Hum
%
Delta-T
°C
Wind Press
QNH
hPa
Press
MSL
hPa
Rain
since 9 am
mm
Dir
 
Spd
km/h
Gust
km/h
Spd
kts
Gust
kts
30/11:30pm 32.3 30.8 16.2 38 10.1 NW 19 24 10 13 1006.1 1005.2 0.0
30/11:00pm 33.0 29.0 10.4 25 13.1 NW 22 30 12 16 1006.3 1005.4 0.0
30/10:30pm 31.3 26.6 7.7 23 13.0 NW 22 32 12 17 1006.2 1005.3 0.0
30/10:00pm 32.0 31.1 7.6 22 13.5 W 2 11 1 6 1006.0 1005.1 0.0
30/09:30pm 33.2 32.9 8.6 22 13.9 CALM 0 0 0 0 1006.2 1005.3 0.0
30/09:00pm 33.8 33.1 7.0 19 14.8 CALM 0 0 0 0 1006.2 1005.3 0.0
30/08:30pm 34.8 34.3 7.8 19 15.1 CALM 0 0 0 0 1006.0 1005.1 0.0
30/08:00pm 34.4 33.6 6.7 18 15.3 SW 0 0 0 0 1006.0 1005.1 0.0
30/07:30pm 35.1 34.5 7.2 18 15.5 CALM 0 0 0 0 1005.8 1004.9 0.0
30/07:00pm 35.7 35.0 6.9 17 16.0 CALM 0 0 0 0 1005.6 1004.7 0.0
30/06:30pm 38.2 37.5 7.0 15 17.6 CALM 0 0 0 0 1005.3 1004.4 0.0
30/06:00pm 38.9 38.3 7.6 15 17.9 CALM 0 0 0 0 1005.1 1004.2 0.0
30/05:30pm 40.5 39.1 5.6 12 19.5 E 2 6 1 3 1004.9 1004.0 0.0
30/05:00pm 41.4 40.3 5.0 11 20.3 CALM 0 0 0 0 1004.6 1003.8 0.0
30/04:30pm 41.6 38.4 5.2 11 20.3 E 11 15 6 8 1004.5 1003.7 0.0
30/04:00pm 42.3 39.7 4.3 10 21.0 ENE 7 15 4 8 1004.3 1003.5 0.0
30/03:30pm 42.2 39.2 4.3 10 20.9 NE 9 20 5 11 1004.4 1003.6 0.0
30/03:00pm 42.2 38.9 4.3 10 21.0 E 11 20 6 11 1004.5 1003.7 0.0
30/02:30pm 43.2 39.7 3.5 9 21.8 E 11 19 6 10 1004.9 1004.0 0.0
30/02:00pm 43.1 38.3 4.9 10 21.4 NE 19 30 10 16 1005.2 1004.3 0.0
30/01:30pm 42.1 39.0 5.6 11 20.5 ESE 11 19 6 10 1005.5 1004.6 0.0
30/01:00pm 42.8 38.7 6.1 11 20.9 N 17 26 9 14 1005.8 1004.9 0.0
30/12:30pm 42.7 40.7 7.3 12 20.4 ENE 7 13 4 7 1006.4 1005.5 0.0
30/12:00pm 41.6 39.2 8.7 14 19.3 SSE 11 19 6 10 1006.9 1006.0 0.0
30/11:30am 40.8 38.8 10.0 16 18.3 SE 11 20 6 11 1007.6 1006.7 0.0
30/11:00am 41.0 39.3 11.1 17 18.1 S 11 20 6 11 1008.2 1007.3 0.0
30/10:30am 39.3 38.0 11.4 19 16.8 SSW 9 19 5 10 1008.7 1007.8 0.0
30/10:00am 39.0 37.2 12.0 20 16.4 SW 13 20 7 11 1009.2 1008.3 0.0
30/09:30am 37.2 35.7 13.2 23 14.7 WSW 13 20 7 11 1009.7 1008.9 0.0
30/09:00am 35.5 34.8 13.1 26 13.7 SW 9 20 5 11 1010.1 1009.3 0.0
30/08:30am 34.6 34.0 13.4 28 12.9 WSW 9 19 5 10 1010.5 1009.7 0.0
30/08:00am 33.9 32.7 13.9 30 12.3 W 13 19 7 10 1010.6 1009.8 0.0
30/07:30am 32.4 31.9 15.8 36 10.4 W 13 20 7 11 1010.5 1009.7 0.0
30/07:00am 30.8 30.7 17.8 45 8.4 WNW 15 20 8 11 1010.4 1009.6 0.0
30/06:30am 29.3 30.2 18.4 51 7.0 NNW 11 15 6 8 1010.3 1009.5 0.0
30/06:00am 27.7 28.5 17.2 52 6.6 N 9 11 5 6 1010.0 1009.2 0.0
30/05:30am 26.6 27.0 16.2 52 6.4 NNW 9 11 5 6 1009.6 1008.8 0.0
30/05:00am 26.6 27.6 16.8 55 6.1 NNW 7 9 4 5 1009.4 1008.6 0.0
30/04:30am 26.8 27.2 16.4 53 6.5 NNW 9 11 5 6 1009.1 1008.2 0.0
30/04:00am 27.1 27.2 16.4 52 6.7 NW 11 13 6 7 1009.0 1008.1 0.0
30/03:30am 28.2 27.7 16.8 50 7.1 WNW 15 15 8 8 1008.7 1007.8 0.0
30/03:00am 29.1 27.9 17.0 48 7.6 WNW 19 20 10 11 1008.6 1007.7 0.0
30/02:30am 28.6 27.7 15.8 45 7.9 NW 15 17 8 9 1008.5 1007.6 0.0
30/02:00am 30.1 30.2 16.5 44 8.6 N 11 13 6 7 1008.6 1007.7 0.0
30/01:30am 30.1 30.7 15.8 42 8.9 N 7 11 4 6 1008.6 1007.7 0.0
30/01:00am 31.5 32.3 16.3 40 9.6 NW 7 11 4 6 1008.6 1007.7 0.0
30/12:30am 31.9 32.7 15.8 38 10.1 W 6 9 3 5 1008.6 1007.7 0.0
30/12:00am 32.7 32.6 16.1 37 10.5 WNW 11 17 6 9 1008.7 1007.8 0.0
 
Date/Time
WST
Temp
°C
App
Temp
°C
Dew
Point
Rel
Hum
%
Delta-T
°C
Wind Press
QNH
hPa
Press
MSL
hPa
Rain
since 9 am
mm
Dir
 
Spd
km/h
Gust
km/h
Spd
kts
Gust
kts
29/11:30pm 33.4 31.9 15.4 34 11.3 WNW 17 22 9 12 1008.7 1007.8 0.0
29/11:00pm 34.2 31.7 14.1 29 12.4 WNW 20 28 11 15 1008.9 1008.0 0.0
29/10:30pm 34.8 31.9 13.0 26 13.2 WNW 20 26 11 14 1009.2 1008.3 0.0
29/10:00pm 35.4 31.8 11.7 23 14.2 W 22 30 12 16 1009.2 1008.3 0.0
29/09:30pm 36.0 31.7 10.9 22 14.8 W 24 33 13 18 1009.2 1008.3 0.0
29/09:00pm 37.7 33.8 8.5 17 16.8 SSW 19 26 10 14 1009.1 1008.2 0.0
29/08:30pm 36.7 33.5 10.1 20 15.6 SE 17 32 9 17 1009.4 1008.6 0.0
29/08:00pm 35.8 34.0 9.3 20 15.3 WSW 9 11 5 6 1008.9 1008.0 0.0
29/07:30pm 35.4 34.6 9.7 21 14.9 WNW 4 7 2 4 1008.8 1007.9 0.0
29/07:00pm 36.5 34.3 9.2 19 15.8 N 11 13 6 7 1008.8 1007.9 0.0
29/06:30pm 37.1 35.0 9.6 19 16.0 N 11 15 6 8 1008.3 1007.4 0.0
29/06:00pm 37.1 33.5 10.4 20 15.8 N 20 28 11 15 1008.1 1007.2 0.0
29/05:30pm 37.5 32.8 10.7 20 15.9 NNE 26 37 14 20 1008.1 1007.2 0.0
29/05:15pm 37.9 31.6 11.1 20 16.0 N 35 56 19 30 1007.9 1007.0 0.0
29/05:08pm 37.4 31.0 10.7 20 15.8 NNE 35 46 19 25 1008.1 1007.2 0.0
29/05:00pm 41.2 38.6 6.1 12 19.8 ESE 9 11 5 6 1007.4 1006.5 0.0
29/04:30pm 41.1 39.1 7.2 13 19.4 ESE 7 11 4 6 1007.1 1006.2 0.0
29/04:00pm 41.3 39.6 7.4 13 19.5 N 6 13 3 7 1007.0 1006.1 0.0
29/03:30pm 41.5 38.8 7.5 13 19.6 NNE 11 17 6 9 1007.1 1006.2 0.0
29/03:00pm 42.0 39.5 6.7 12 20.2 NE 9 15 5 8 1007.3 1006.4 0.0
29/02:30pm 41.2 38.1 7.3 13 19.4 N 13 22 7 12 1007.5 1006.6 0.0
29/02:00pm 41.3 38.6 7.4 13 19.5 NE 11 19 6 10 1007.8 1006.9 0.0
29/01:30pm 40.9 39.3 8.1 14 19.0 NE 6 11 3 6 1008.2 1007.3 0.0
29/01:00pm 41.6 39.5 9.7 15 19.0 ENE 11 20 6 11 1008.6 1007.7 0.0
29/12:30pm 40.1 37.2 9.5 16 18.0 N 15 22 8 12 1009.0 1008.1 0.0
29/12:00pm 40.1 37.0 10.4 17 17.7 NNE 17 24 9 13 1009.6 1008.8 0.0
29/11:30am 39.4 38.5 11.5 19 16.9 E 7 11 4 6 1010.2 1009.4 0.0
29/11:00am 39.0 39.5 14.1 23 15.6 S 4 11 2 6 1010.7 1009.9 0.0
29/10:30am 37.9 37.6 14.5 25 14.7 S 9 17 5 9 1011.4 1010.6 0.0
29/10:00am 36.3 36.6 14.9 28 13.4 SE 7 15 4 8 1011.9 1011.1 0.0
29/09:30am 35.5 35.5 15.3 30 12.7 S 9 13 5 7 1012.3 1011.5 0.0
29/09:00am 34.4 33.7 15.3 31 12.0 S 13 19 7 10 1012.3 1011.5 0.0
29/08:30am 33.5 32.8 15.5 34 11.3 SW 13 19 7 10 1012.4 1011.6 0.0
29/08:00am 32.4 31.7 16.3 38 10.2 SW 15 19 8 10 1012.5 1011.7 0.0
29/07:30am 30.9 31.2 16.9 43 8.9 W 11 17 6 9 1012.5 1011.7 0.0
29/07:00am 29.1 29.4 17.0 48 7.6 WNW 11 15 6 8 1012.4 1011.6 0.0
29/06:30am 27.9 28.5 16.8 50 7.0 W 9 11 5 6 1012.3 1011.5 0.0
29/06:00am 27.0 27.5 16.6 53 6.5 NNW 9 11 5 6 1012.2 1011.4 0.0
29/05:30am 26.3 26.6 16.0 53 6.3 NNW 9 11 5 6 1011.6 1010.8 0.0
29/05:00am 26.9 27.7 15.9 51 6.8 WNW 6 7 3 4 1011.3 1010.5 0.0
29/04:30am 27.0 26.9 16.0 51 6.8 WNW 11 15 6 8 1011.0 1010.2 0.0
29/04:00am 26.8 26.6 15.8 51 6.8 WNW 11 13 6 7 1010.7 1009.9 0.0
29/03:30am 27.4 26.8 15.7 48 7.2 N 13 15 7 8 1010.5 1009.7 0.0
29/03:00am 27.5 27.7 15.8 48 7.2 N 9 13 5 7 1010.1 1009.3 0.0
29/02:30am 28.2 28.5 16.1 47 7.5 NNW 9 9 5 5 1009.7 1008.9 0.0
29/02:00am 29.9 30.2 17.0 45 8.2 NW 11 13 6 7 1009.5 1008.7 0.0
29/01:30am 29.8 30.1 16.9 45 8.1 NW 11 15 6 8 1009.6 1008.8 0.0
29/01:00am 30.7 30.5 16.7 43 8.9 WNW 13 17 7 9 1009.7 1008.9 0.0
29/12:30am 31.0 30.1 15.8 40 9.5 WNW 15 20 8 11 1010.1 1009.3 0.0
29/12:00am 30.8 30.4 15.2 38 9.6 WNW 11 13 6 7 1010.3 1009.5 0.0
 
Date/Time
WST
Temp
°C
App
Temp
°C
Dew
Point
Rel
Hum
%
Delta-T
°C
Wind Press
QNH
hPa
Press
MSL
hPa
Rain
since 9 am
mm
Dir
 
Spd
km/h
Gust
km/h
Spd
kts
Gust
kts
28/11:30pm 30.8 30.0 15.2 38 9.6 WNW 13 15 7 8 1010.3 1009.5 0.0
28/11:00pm 30.9 29.6 15.7 39 9.5 NW 17 20 9 11 1010.2 1009.4 0.0
28/10:30pm 31.7 29.1 14.8 36 10.4 NW 22 30 12 16 1010.0 1009.2 0.0
28/10:00pm 32.5 28.8 9.3 24 13.2 NNW 19 24 10 13 1009.6 1008.8 0.0
28/09:30pm 33.7 31.6 8.3 21 14.3 SSE 9 9 5 5 1009.1 1008.2 0.0
28/09:00pm 34.6 32.3 7.6 19 15.1 SSE 9 9 5 5 1009.0 1008.1 0.0
28/08:30pm 36.0 33.0 6.2 16 16.4 S 11 13 6 7 1008.9 1008.0 0.0
28/08:00pm 36.4 33.1 6.6 16 16.6 SSW 13 17 7 9 1008.9 1008.0 0.0
28/07:30pm 37.0 32.5 7.0 16 16.8 W 20 20 11 11 1008.7 1007.8 0.0
28/07:09pm 37.5 32.6 8.3 17 16.7 SE 24 41 13 22 1009.7 1008.9 0.0
28/07:01pm 37.8 28.3 6.7 15 17.4 S 46 82 25 44 1009.2 1008.3 0.0
28/07:00pm 38.2 29.7 7.0 15 17.6 S 41 57 22 31 1009.3 1008.4 0.0
28/06:59pm 38.4 30.1 6.2 14 17.9 SSE 39 50 21 27 1009.3 1008.4 0.0
28/06:30pm 35.5 29.0 9.1 20 15.2 ESE 33 54 18 29 1009.1 1008.2 0.0
28/06:01pm 35.5 30.4 10.5 22 14.7 ESE 28 46 15 25 1008.8 1007.9 0.0
28/06:00pm 35.4 30.1 11.1 23 14.4 ESE 30 46 16 25 1008.8 1007.9 0.0
28/05:30pm 35.3 29.2 10.4 22 14.6 E 33 59 18 32 1009.2 1008.3 0.0
28/05:24pm 35.6 30.3 9.9 21 14.9 E 28 46 15 25 1009.0 1008.1 0.0
28/05:00pm 36.1 34.2 11.7 23 14.6 NW 13 15 7 8 1008.0 1007.1 0.0
28/04:30pm 36.1 34.4 12.3 24 14.4 N 13 20 7 11 1008.3 1007.4 0.0
28/04:27pm 35.9 32.2 10.2 21 15.0 ENE 20 30 11 16 1008.4 1007.5 0.0
28/04:23pm 36.6 29.5 12.1 23 14.8 ESE 41 63 22 34 1008.6 1007.7 0.0
28/04:22pm 37.0 28.6 8.8 18 16.2 ESE 43 50 23 27 1008.4 1007.5 0.0
28/04:19pm 37.6 32.3 10.0 19 16.2 ENE 28 50 15 27 1008.2 1007.3 0.0
28/04:00pm 38.1 31.2 8.8 17 17.0 NE 35 48 19 26 1007.5 1006.6 0.0
28/03:48pm 38.9 33.0 7.6 15 17.8 NE 28 43 15 23 1007.3 1006.4 0.0
28/03:30pm 41.2 38.4 8.4 14 19.1 NNE 13 22 7 12 1007.1 1006.2 0.0
28/03:00pm 40.8 38.1 9.1 15 18.7 NW 13 19 7 10 1007.1 1006.2 0.0
28/02:30pm 41.3 39.4 10.4 16 18.5 ENE 11 19 6 10 1007.6 1006.7 0.0
28/02:00pm 41.0 37.9 10.2 16 18.4 NNE 17 28 9 15 1007.9 1007.0 0.0
28/01:30pm 40.4 38.9 10.6 17 17.8 N 9 19 5 10 1008.3 1007.4 0.0
28/01:00pm 40.1 37.5 9.5 16 18.1 ENE 13 33 7 18 1008.8 1007.9 0.0
28/12:30pm 40.9 39.7 12.7 19 17.4 NNW 11 28 6 15 1009.0 1008.1 0.0
28/12:00pm 39.2 38.3 13.6 22 15.9 SW 11 17 6 9 1009.5 1008.7 0.0

Other Formats:

Comma delimited format used in spreadsheet applications
http://www.bom.gov.au/fwo/IDW60801/IDW60801.94206.axf

JavaScript Object Notation format (JSON) in row-major order
http://www.bom.gov.au/fwo/IDW60801/IDW60801.94206.json